createdAt,value
2018-07-22T00:00:38.045Z,1006.70
2018-07-22T00:01:38.055Z,1006.74
2018-07-22T00:02:38.083Z,1006.70
2018-07-22T00:03:38.109Z,1006.77
2018-07-22T00:04:38.145Z,1006.79
2018-07-22T00:05:38.161Z,1006.73
2018-07-22T00:06:38.186Z,1006.78
2018-07-22T00:07:38.212Z,1006.76
2018-07-22T00:08:38.227Z,1006.76
2018-07-22T00:09:38.252Z,1006.75
2018-07-22T00:10:38.279Z,1006.79
2018-07-22T00:11:38.305Z,1006.78
2018-07-22T00:12:38.331Z,1006.81
2018-07-22T00:13:38.355Z,1006.80
2018-07-22T00:14:38.381Z,1006.78
2018-07-22T00:15:38.406Z,1006.79
2018-07-22T00:16:38.419Z,1006.78
2018-07-22T00:17:38.447Z,1006.79
2018-07-22T00:18:38.473Z,1006.78
2018-07-22T00:19:38.512Z,1006.77
2018-07-22T00:20:38.525Z,1006.78
2018-07-22T00:21:38.549Z,1006.78
2018-07-22T00:22:38.575Z,1006.79
2018-07-22T00:23:38.590Z,1006.81
2018-07-22T00:24:38.619Z,1006.81
2018-07-22T00:25:38.641Z,1006.83
2018-07-22T00:26:38.669Z,1006.86
2018-07-22T00:27:38.693Z,1006.84
2018-07-22T00:28:38.721Z,1006.85
2018-07-22T00:29:38.747Z,1006.87
2018-07-22T00:30:38.761Z,1006.87
2018-07-22T00:31:38.786Z,1006.84
2018-07-22T00:32:38.825Z,1006.91
2018-07-22T00:33:38.835Z,1006.91
2018-07-22T00:34:38.867Z,1006.90
2018-07-22T00:35:38.888Z,1006.90
2018-07-22T00:36:38.913Z,1006.91
2018-07-22T00:37:38.933Z,1006.93
2018-07-22T00:38:38.957Z,1006.92
2018-07-22T00:39:38.982Z,1006.91
2018-07-22T00:40:39.009Z,1006.89
2018-07-22T00:41:39.033Z,1006.89
2018-07-22T00:42:39.060Z,1006.88
2018-07-22T00:43:39.085Z,1006.92
2018-07-22T00:44:39.099Z,1006.89
2018-07-22T00:45:39.123Z,1006.83
2018-07-22T00:46:39.149Z,1006.83
2018-07-22T00:47:39.174Z,1006.79
2018-07-22T00:48:39.201Z,1006.81
2018-07-22T00:49:39.228Z,1006.81
2018-07-22T00:50:39.254Z,1006.78
2018-07-22T00:51:39.268Z,1006.80
2018-07-22T00:52:39.293Z,1006.84
2018-07-22T00:53:39.317Z,1006.81
2018-07-22T00:54:39.343Z,1006.84
2018-07-22T00:55:39.370Z,1006.82
2018-07-22T00:56:39.384Z,1006.80
2018-07-22T00:57:39.411Z,1006.84
2018-07-22T00:58:39.437Z,1006.78
2018-07-22T00:59:39.462Z,1006.82
2018-07-22T01:00:39.501Z,1006.82
2018-07-22T01:01:39.517Z,1006.81
2018-07-22T01:02:39.541Z,1006.83
2018-07-22T01:03:39.551Z,1006.82
2018-07-22T01:04:39.578Z,1006.81
2018-07-22T01:05:39.606Z,1006.78
2018-07-22T01:06:39.632Z,1006.75
2018-07-22T01:07:39.658Z,1006.82
2018-07-22T01:08:39.672Z,1006.83
2018-07-22T01:09:39.695Z,1006.80
2018-07-22T01:10:39.720Z,1006.80
2018-07-22T01:11:39.747Z,1006.82
2018-07-22T01:12:39.772Z,1006.82
2018-07-22T01:13:39.799Z,1006.80
2018-07-22T01:14:39.824Z,1006.84
2018-07-22T01:15:39.851Z,1006.82
2018-07-22T01:16:39.866Z,1006.82
2018-07-22T01:17:39.893Z,1006.80
2018-07-22T01:18:39.919Z,1006.81
2018-07-22T01:19:39.945Z,1006.81
2018-07-22T01:20:39.957Z,1006.83
2018-07-22T01:21:39.982Z,1006.82
2018-07-22T01:22:40.007Z,1006.82
2018-07-22T01:23:40.034Z,1006.81
2018-07-22T01:24:40.063Z,1006.82
2018-07-22T01:25:40.087Z,1006.81
2018-07-22T01:26:40.115Z,1006.84
2018-07-22T01:27:40.129Z,1006.86
2018-07-22T01:28:40.152Z,1006.86
2018-07-22T01:29:40.178Z,1006.88
2018-07-22T01:30:40.205Z,1006.89
2018-07-22T01:31:40.220Z,1006.88
2018-07-22T01:32:40.244Z,1006.88
2018-07-22T01:33:40.267Z,1006.90
2018-07-22T01:34:40.294Z,1006.91
2018-07-22T01:35:40.332Z,1006.88
2018-07-22T01:36:40.345Z,1006.87
2018-07-22T01:37:40.362Z,1006.88
2018-07-22T01:38:40.388Z,1006.89
2018-07-22T01:39:40.414Z,1006.92
2018-07-22T01:40:40.439Z,1006.93
2018-07-22T01:41:40.466Z,1006.92
2018-07-22T01:42:40.478Z,1006.96
2018-07-22T01:43:40.502Z,1006.96
2018-07-22T01:44:40.528Z,1006.91
2018-07-22T01:45:40.556Z,1006.97
2018-07-22T01:46:40.581Z,1006.98
2018-07-22T01:47:40.597Z,1006.97
2018-07-22T01:48:40.620Z,1006.96
2018-07-22T01:49:40.648Z,1006.98
2018-07-22T01:50:40.674Z,1006.95
2018-07-22T01:51:40.700Z,1006.94
2018-07-22T01:52:40.715Z,1006.92
2018-07-22T01:53:40.737Z,1006.89
2018-07-22T01:54:40.763Z,1006.91
2018-07-22T01:55:40.789Z,1006.90
2018-07-22T01:56:40.815Z,1006.87
2018-07-22T01:57:40.831Z,1006.90
2018-07-22T01:58:40.857Z,1006.87
2018-07-22T01:59:40.883Z,1006.88
2018-07-22T02:00:40.909Z,1006.88
2018-07-22T02:01:40.956Z,1006.90
2018-07-22T02:02:40.948Z,1006.90
2018-07-22T02:03:40.974Z,1006.91
2018-07-22T02:04:41.012Z,1006.89
2018-07-22T02:05:41.025Z,1006.93
2018-07-22T02:06:41.049Z,1006.97
2018-07-22T02:07:41.063Z,1006.96
2018-07-22T02:08:41.090Z,1006.97
2018-07-22T02:09:41.117Z,1006.97
2018-07-22T02:10:41.144Z,1006.97
2018-07-22T02:11:41.156Z,1006.97
2018-07-22T02:12:41.182Z,1006.97
2018-07-22T02:13:41.206Z,1006.96
2018-07-22T02:14:41.232Z,1006.98
2018-07-22T02:15:41.246Z,1006.98
2018-07-22T02:16:41.276Z,1006.99
2018-07-22T02:17:41.297Z,1006.96
2018-07-22T02:18:41.328Z,1006.96
2018-07-22T02:19:41.391Z,1006.95
2018-07-22T02:20:41.362Z,1006.99
2018-07-22T02:21:41.391Z,1006.94
2018-07-22T02:22:41.416Z,1006.92
2018-07-22T02:23:41.443Z,1006.96
2018-07-22T02:24:41.457Z,1006.96
2018-07-22T02:25:41.481Z,1006.95
2018-07-22T02:26:41.506Z,1006.98
2018-07-22T02:27:41.536Z,1007.00
2018-07-22T02:28:41.546Z,1006.97
2018-07-22T02:29:41.573Z,1007.00
2018-07-22T02:30:41.599Z,1006.96
2018-07-22T02:31:41.625Z,1007.01
2018-07-22T02:32:41.639Z,1006.98
2018-07-22T02:33:41.668Z,1006.96
2018-07-22T02:34:41.691Z,1006.99
2018-07-22T02:35:41.720Z,1007.00
2018-07-22T02:36:41.730Z,1006.96
2018-07-22T02:37:41.753Z,1006.99
2018-07-22T02:38:41.780Z,1007.05
2018-07-22T02:39:41.806Z,1007.05
2018-07-22T02:40:41.820Z,1007.06
2018-07-22T02:41:41.848Z,1007.06
2018-07-22T02:42:41.874Z,1007.05
2018-07-22T02:43:41.900Z,1007.08
2018-07-22T02:44:41.915Z,1007.05
2018-07-22T02:45:41.937Z,1007.07
2018-07-22T02:46:41.962Z,1007.09
2018-07-22T02:47:41.988Z,1007.06
2018-07-22T02:48:42.007Z,1007.03
2018-07-22T02:49:42.031Z,1007.03
2018-07-22T02:50:42.054Z,1007.04
2018-07-22T02:51:42.082Z,1007.00
2018-07-22T02:52:42.099Z,1007.07
2018-07-22T02:53:42.123Z,1007.05
2018-07-22T02:54:42.147Z,1007.07
2018-07-22T02:55:42.173Z,1007.04
2018-07-22T02:56:42.188Z,1007.05
2018-07-22T02:57:42.210Z,1007.05
2018-07-22T02:58:42.237Z,1007.01
2018-07-22T02:59:42.250Z,1007.04
2018-07-22T03:00:42.275Z,1007.04
2018-07-22T03:01:42.305Z,1007.01
2018-07-22T03:02:42.330Z,1007.03
2018-07-22T03:03:42.344Z,1007.04
2018-07-22T03:04:42.372Z,1007.06
2018-07-22T03:05:42.397Z,1007.06
2018-07-22T03:06:42.407Z,1007.06
2018-07-22T03:07:42.433Z,1007.10
2018-07-22T03:08:42.458Z,1007.09
2018-07-22T03:09:42.475Z,1007.07
2018-07-22T03:10:42.500Z,1007.04
2018-07-22T03:11:42.527Z,1007.07
2018-07-22T03:12:42.556Z,1007.06
2018-07-22T03:13:42.565Z,1007.09
2018-07-22T03:14:42.590Z,1007.09
2018-07-22T03:15:42.615Z,1007.11
2018-07-22T03:16:42.631Z,1007.14
2018-07-22T03:17:42.657Z,1007.13
2018-07-22T03:18:42.683Z,1007.16
2018-07-22T03:19:42.699Z,1007.16
2018-07-22T03:20:42.722Z,1007.16
2018-07-22T03:21:42.748Z,1007.16
2018-07-22T03:22:42.776Z,1007.14
2018-07-22T03:23:42.788Z,1007.13
2018-07-22T03:24:42.814Z,1007.15
2018-07-22T03:25:42.837Z,1007.12
2018-07-22T03:26:42.851Z,1007.15
2018-07-22T03:27:42.877Z,1007.10
2018-07-22T03:28:42.902Z,1007.11
2018-07-22T03:29:42.930Z,1007.12
2018-07-22T03:30:42.947Z,1007.15
2018-07-22T03:31:42.975Z,1007.14
2018-07-22T03:32:42.996Z,1007.16
2018-07-22T03:33:43.007Z,1007.17
2018-07-22T03:34:43.039Z,1007.20
2018-07-22T03:35:43.059Z,1007.21
2018-07-22T03:36:43.078Z,1007.23
2018-07-22T03:37:43.100Z,1007.19
2018-07-22T03:38:43.126Z,1007.21
2018-07-22T03:39:43.153Z,1007.23
2018-07-22T03:40:43.177Z,1007.21
2018-07-22T03:41:43.193Z,1007.21
2018-07-22T03:42:43.218Z,1007.20
2018-07-22T03:43:43.232Z,1007.20
2018-07-22T03:44:43.258Z,1007.15
2018-07-22T03:45:43.282Z,1007.18
2018-07-22T03:46:43.308Z,1007.20
2018-07-22T03:47:43.335Z,1007.19
2018-07-22T03:48:43.347Z,1007.19
2018-07-22T03:49:43.387Z,1007.21
2018-07-22T03:50:43.390Z,1007.24
2018-07-22T03:51:43.419Z,1007.23
2018-07-22T03:52:43.442Z,1007.25
2018-07-22T03:53:43.467Z,1007.25
2018-07-22T03:54:43.479Z,1007.24
2018-07-22T03:55:43.508Z,1007.27
2018-07-22T03:56:43.531Z,1007.25
2018-07-22T03:57:43.544Z,1007.26
2018-07-22T03:58:43.569Z,1007.30
2018-07-22T03:59:43.596Z,1007.25
2018-07-22T04:00:43.624Z,1007.20
2018-07-22T04:01:43.639Z,1007.16
2018-07-22T04:02:43.662Z,1007.14
2018-07-22T04:03:43.689Z,1007.16
2018-07-22T04:04:43.704Z,1007.20
2018-07-22T04:05:43.727Z,1007.22
2018-07-22T04:06:43.754Z,1007.20
2018-07-22T04:07:43.767Z,1007.23
2018-07-22T04:08:43.794Z,1007.21
2018-07-22T04:09:43.817Z,1007.21
2018-07-22T04:10:43.844Z,1007.20
2018-07-22T04:11:43.858Z,1007.17
2018-07-22T04:12:43.883Z,1007.19
2018-07-22T04:13:43.912Z,1007.19
2018-07-22T04:14:43.944Z,1007.20
2018-07-22T04:15:43.951Z,1007.20
2018-07-22T04:16:43.977Z,1007.18
2018-07-22T04:17:44.000Z,1007.19
2018-07-22T04:18:44.027Z,1007.20
2018-07-22T04:19:44.040Z,1007.17
2018-07-22T04:20:44.066Z,1007.19
2018-07-22T04:21:44.095Z,1007.21
2018-07-22T04:22:44.120Z,1007.15
2018-07-22T04:23:44.135Z,1007.18
2018-07-22T04:24:44.159Z,1007.19
2018-07-22T04:25:44.185Z,1007.21
2018-07-22T04:26:44.212Z,1007.22
2018-07-22T04:27:44.239Z,1007.22
2018-07-22T04:28:44.251Z,1007.22
2018-07-22T04:29:44.277Z,1007.22
2018-07-22T04:30:44.301Z,1007.21
2018-07-22T04:31:44.327Z,1007.22
2018-07-22T04:32:44.340Z,1007.21
2018-07-22T04:33:44.367Z,1007.16
2018-07-22T04:34:44.393Z,1007.13
2018-07-22T04:35:44.419Z,1007.15
2018-07-22T04:36:44.445Z,1007.16
2018-07-22T04:37:44.457Z,1007.18
2018-07-22T04:38:44.483Z,1007.19
2018-07-22T04:39:44.509Z,1007.18
2018-07-22T04:40:44.554Z,1007.18
2018-07-22T04:41:44.549Z,1007.18
2018-07-22T04:42:44.588Z,1007.18
2018-07-22T04:43:44.601Z,1007.16
2018-07-22T04:44:44.626Z,1007.22
2018-07-22T04:45:44.654Z,1007.21
2018-07-22T04:46:44.668Z,1007.24
2018-07-22T04:47:44.694Z,1007.21
2018-07-22T04:48:44.720Z,1007.22
2018-07-22T04:49:44.745Z,1007.23
2018-07-22T04:50:44.769Z,1007.24
2018-07-22T04:51:44.783Z,1007.23
2018-07-22T04:52:44.808Z,1007.20
2018-07-22T04:53:44.836Z,1007.24
2018-07-22T04:54:44.867Z,1007.24
2018-07-22T04:55:44.888Z,1007.21
2018-07-22T04:56:44.914Z,1007.22
2018-07-22T04:57:44.930Z,1007.22
2018-07-22T04:58:44.956Z,1007.19
2018-07-22T04:59:44.980Z,1007.17
2018-07-22T05:00:45.007Z,1007.22
2018-07-22T05:01:45.030Z,1007.23
2018-07-22T05:02:45.044Z,1007.26
2018-07-22T05:03:45.069Z,1007.27
2018-07-22T05:04:45.111Z,1007.22
2018-07-22T05:05:45.122Z,1007.28
2018-07-22T05:06:45.149Z,1007.25
2018-07-22T05:07:45.175Z,1007.31
2018-07-22T05:08:45.200Z,1007.25
2018-07-22T05:09:45.212Z,1007.23
2018-07-22T05:10:45.239Z,1007.27
2018-07-22T05:11:45.265Z,1007.28
2018-07-22T05:12:45.294Z,1007.32
2018-07-22T05:13:45.319Z,1007.27
2018-07-22T05:14:45.344Z,1007.21
2018-07-22T05:15:45.358Z,1007.24
2018-07-22T05:16:45.396Z,1007.23
2018-07-22T05:17:45.409Z,1007.26
2018-07-22T05:18:45.434Z,1007.27
2018-07-22T05:19:45.458Z,1007.27
2018-07-22T05:20:45.486Z,1007.27
2018-07-22T05:21:45.513Z,1007.24
2018-07-22T05:22:45.539Z,1007.26
2018-07-22T05:23:45.553Z,1007.26
2018-07-22T05:24:45.579Z,1007.23
2018-07-22T05:25:45.603Z,1007.25
2018-07-22T05:26:45.629Z,1007.26
2018-07-22T05:27:45.656Z,1007.26
2018-07-22T05:28:45.681Z,1007.26
2018-07-22T05:29:45.709Z,1007.29
2018-07-22T05:30:45.733Z,1007.27
2018-07-22T05:31:45.747Z,1007.28
2018-07-22T05:32:45.785Z,1007.27
2018-07-22T05:33:45.800Z,1007.27
2018-07-22T05:34:45.825Z,1007.29
2018-07-22T05:35:45.863Z,1007.28
2018-07-22T05:36:45.877Z,1007.35
2018-07-22T05:37:45.901Z,1007.30
2018-07-22T05:38:45.929Z,1007.33
2018-07-22T05:39:45.953Z,1007.34
2018-07-22T05:40:45.979Z,1007.37
2018-07-22T05:41:46.007Z,1007.38
2018-07-22T05:42:46.024Z,1007.41
2018-07-22T05:43:46.047Z,1007.45
2018-07-22T05:44:46.073Z,1007.49
2018-07-22T05:45:46.100Z,1007.50
2018-07-22T05:46:46.125Z,1007.49
2018-07-22T05:47:46.152Z,1007.53
2018-07-22T05:48:46.177Z,1007.51
2018-07-22T05:49:46.201Z,1007.49
2018-07-22T05:50:46.226Z,1007.53
2018-07-22T05:51:46.255Z,1007.51
2018-07-22T05:52:46.278Z,1007.51
2018-07-22T05:53:46.306Z,1007.51
2018-07-22T05:54:46.333Z,1007.54
2018-07-22T05:55:46.361Z,1007.52
2018-07-22T05:56:46.385Z,1007.52
2018-07-22T05:57:46.409Z,1007.55
2018-07-22T05:58:46.434Z,1007.58
2018-07-22T05:59:46.463Z,1007.57
2018-07-22T06:00:46.487Z,1007.59
2018-07-22T06:01:46.515Z,1007.62
2018-07-22T06:02:46.538Z,1007.64
2018-07-22T06:03:46.565Z,1007.67
2018-07-22T06:04:46.590Z,1007.69
2018-07-22T06:05:46.618Z,1007.68
2018-07-22T06:06:46.644Z,1007.68
2018-07-22T06:07:46.670Z,1007.70
2018-07-22T06:08:46.697Z,1007.72
2018-07-22T06:09:46.720Z,1007.75
2018-07-22T06:10:46.746Z,1007.72
2018-07-22T06:11:46.819Z,1007.72
2018-07-22T06:12:46.797Z,1007.65
2018-07-22T06:13:46.825Z,1007.68
2018-07-22T06:14:46.852Z,1007.69
2018-07-22T06:15:46.879Z,1007.72
2018-07-22T06:16:46.947Z,1007.71
2018-07-22T06:17:46.931Z,1007.71
2018-07-22T06:18:46.956Z,1007.75
2018-07-22T06:19:46.981Z,1007.76
2018-07-22T06:20:47.008Z,1007.72
2018-07-22T06:21:47.031Z,1007.72
2018-07-22T06:22:47.057Z,1007.70
2018-07-22T06:23:47.084Z,1007.68
2018-07-22T06:24:47.110Z,1007.75
2018-07-22T06:25:47.138Z,1007.72
2018-07-22T06:26:47.164Z,1007.75
2018-07-22T06:27:47.189Z,1007.76
2018-07-22T06:28:47.228Z,1007.78
2018-07-22T06:29:47.251Z,1007.78
2018-07-22T06:30:47.277Z,1007.79
2018-07-22T06:31:47.307Z,1007.78
2018-07-22T06:32:47.332Z,1007.85
2018-07-22T06:33:47.359Z,1007.83
2018-07-22T06:34:47.380Z,1007.85
2018-07-22T06:35:47.407Z,1007.84
2018-07-22T06:36:47.433Z,1007.85
2018-07-22T06:37:47.461Z,1007.90
2018-07-22T06:38:47.488Z,1007.84
2018-07-22T06:39:47.513Z,1007.91
2018-07-22T06:40:47.539Z,1007.84
2018-07-22T06:41:47.564Z,1007.92
2018-07-22T06:42:47.602Z,1007.89
2018-07-22T06:43:47.628Z,1007.91
2018-07-22T06:44:47.654Z,1007.94
2018-07-22T06:45:47.682Z,1007.95
2018-07-22T06:46:47.708Z,1007.97
2018-07-22T06:47:47.735Z,1007.92
2018-07-22T06:48:47.760Z,1007.92
2018-07-22T06:49:47.785Z,1007.94
2018-07-22T06:50:47.811Z,1007.96
2018-07-22T06:51:47.837Z,1008.04
2018-07-22T06:52:47.864Z,1008.00
2018-07-22T06:53:47.912Z,1007.97
2018-07-22T06:54:47.926Z,1007.97
2018-07-22T06:55:47.950Z,1007.97
2018-07-22T06:56:47.976Z,1007.93
2018-07-22T06:57:48.005Z,1007.94
2018-07-22T06:58:48.031Z,1007.91
2018-07-22T06:59:48.057Z,1007.89
2018-07-22T07:00:48.126Z,1007.90
2018-07-22T07:01:48.120Z,1007.91
2018-07-22T07:02:48.146Z,1007.87
2018-07-22T07:03:48.172Z,1007.92
2018-07-22T07:04:48.224Z,1007.95
2018-07-22T07:05:48.224Z,1007.95
2018-07-22T07:06:48.250Z,1007.88
2018-07-22T07:07:48.288Z,1007.90
2018-07-22T07:08:48.314Z,1007.90
2018-07-22T07:09:48.341Z,1007.90
2018-07-22T07:10:48.370Z,1007.94
2018-07-22T07:11:48.395Z,1007.94
2018-07-22T07:12:48.432Z,1007.93
2018-07-22T07:13:48.457Z,1007.96
2018-07-22T07:14:48.482Z,1007.94
2018-07-22T07:15:48.510Z,1007.96
2018-07-22T07:16:48.548Z,1007.95
2018-07-22T07:17:48.574Z,1008.00
2018-07-22T07:18:48.600Z,1007.98
2018-07-22T07:19:48.627Z,1008.00
2018-07-22T07:20:48.718Z,1008.00
2018-07-22T07:21:48.692Z,1008.02
2018-07-22T07:22:48.715Z,1008.04
2018-07-22T07:23:48.752Z,1008.03
2018-07-22T07:24:48.778Z,1008.00
2018-07-22T07:25:48.807Z,1008.03
2018-07-22T07:26:48.863Z,1008.06
2018-07-22T07:27:48.875Z,1008.07
2018-07-22T07:28:48.897Z,1008.07
2018-07-22T07:29:48.934Z,1008.13
2018-07-22T07:30:48.960Z,1008.13
2018-07-22T07:31:48.985Z,1008.21
2018-07-22T07:32:49.024Z,1008.21
2018-07-22T07:33:49.052Z,1008.24
2018-07-22T07:34:49.079Z,1008.20
2018-07-22T07:35:49.117Z,1008.19
2018-07-22T07:36:49.155Z,1008.25
2018-07-22T07:37:49.169Z,1008.19
2018-07-22T07:38:49.208Z,1008.19
2018-07-22T07:39:49.233Z,1008.21
2018-07-22T07:40:49.273Z,1008.22
2018-07-22T07:41:49.295Z,1008.18
2018-07-22T07:42:49.334Z,1008.20
2018-07-22T07:43:49.363Z,1008.16
2018-07-22T07:44:49.386Z,1008.16
2018-07-22T07:45:49.426Z,1008.14
2018-07-22T07:46:49.452Z,1008.16
2018-07-22T07:47:49.491Z,1008.14
2018-07-22T07:48:49.516Z,1008.15
2018-07-22T07:49:49.552Z,1008.20
2018-07-22T07:50:49.578Z,1008.13
2018-07-22T07:51:49.604Z,1008.11
2018-07-22T07:52:49.644Z,1008.14
2018-07-22T07:53:49.671Z,1008.11
2018-07-22T07:54:49.708Z,1008.09
2018-07-22T07:55:49.733Z,1008.07
2018-07-22T07:56:49.773Z,1008.11
2018-07-22T07:57:49.800Z,1008.05
2018-07-22T07:58:49.838Z,1008.07
2018-07-22T08:00:49.890Z,1008.02
2018-07-22T08:01:49.929Z,1008.04
2018-07-22T08:02:49.955Z,1008.05
2018-07-22T08:03:50.049Z,1008.02
2018-07-22T08:04:50.033Z,1008.05
2018-07-22T08:05:50.057Z,1008.06
2018-07-22T08:06:50.085Z,1008.06
2018-07-22T08:07:50.125Z,1008.07
2018-07-22T08:08:50.148Z,1008.08
2018-07-22T08:09:50.186Z,1008.11
2018-07-22T08:10:50.224Z,1008.12
2018-07-22T08:11:50.311Z,1008.10
2018-07-22T08:12:50.290Z,1008.10
2018-07-22T08:13:50.315Z,1008.16
2018-07-22T08:14:50.356Z,1008.19
2018-07-22T08:15:50.377Z,1008.20
2018-07-22T08:16:50.419Z,1008.20
2018-07-22T08:17:50.446Z,1008.19
2018-07-22T08:18:50.481Z,1008.23
2018-07-22T08:19:50.526Z,1008.24
2018-07-22T08:20:50.546Z,1008.27
2018-07-22T08:21:50.627Z,1008.25
2018-07-22T08:22:50.622Z,1008.24
2018-07-22T08:23:50.647Z,1008.22
2018-07-22T08:24:50.686Z,1008.20
2018-07-22T08:25:50.725Z,1008.20
2018-07-22T08:26:50.765Z,1008.17
2018-07-22T08:27:50.789Z,1008.13
2018-07-22T08:28:50.827Z,1008.18
2018-07-22T08:29:50.865Z,1008.17
2018-07-22T08:30:50.906Z,1008.14
2018-07-22T08:31:50.944Z,1008.15
2018-07-22T08:32:50.970Z,1008.15
2018-07-22T08:33:51.009Z,1008.23
2018-07-22T08:34:51.045Z,1008.18
2018-07-22T08:35:51.085Z,1008.19
2018-07-22T08:36:51.122Z,1008.19
2018-07-22T08:37:51.161Z,1008.17
2018-07-22T08:38:51.201Z,1008.20
2018-07-22T08:39:51.228Z,1008.19
2018-07-22T08:40:51.267Z,1008.23
2018-07-22T08:41:51.304Z,1008.21
2018-07-22T08:42:51.344Z,1008.23
2018-07-22T08:43:51.381Z,1008.19
2018-07-22T08:44:51.420Z,1008.21
2018-07-22T08:45:51.459Z,1008.19
2018-07-22T08:46:51.494Z,1008.17
2018-07-22T08:47:51.534Z,1008.17
2018-07-22T08:48:51.573Z,1008.21
2018-07-22T08:49:51.618Z,1008.19
2018-07-22T08:50:51.651Z,1008.21
2018-07-22T08:51:51.680Z,1008.18
2018-07-22T08:52:51.718Z,1008.25
2018-07-22T08:53:51.754Z,1008.21
2018-07-22T08:54:51.789Z,1008.21
2018-07-22T08:55:51.829Z,1008.24
2018-07-22T08:56:51.866Z,1008.25
2018-07-22T08:57:51.905Z,1008.20
2018-07-22T08:58:51.978Z,1008.27
2018-07-22T08:59:51.983Z,1008.24
2018-07-22T09:00:52.020Z,1008.25
2018-07-22T09:01:52.060Z,1008.26
2018-07-22T09:02:52.087Z,1008.28
2018-07-22T09:03:52.127Z,1008.28
2018-07-22T09:04:52.165Z,1008.21
2018-07-22T09:05:52.208Z,1008.19
2018-07-22T09:06:52.239Z,1008.20
2018-07-22T09:07:52.277Z,1008.18
2018-07-22T09:08:52.317Z,1008.19
2018-07-22T09:09:52.355Z,1008.21
2018-07-22T09:10:52.396Z,1008.23
2018-07-22T09:11:52.524Z,1008.20
2018-07-22T09:12:52.459Z,1008.20
2018-07-22T09:13:52.498Z,1008.19
2018-07-22T09:14:52.535Z,1008.19
2018-07-22T09:15:52.575Z,1008.19
2018-07-22T09:16:52.620Z,1008.17
2018-07-22T09:17:52.721Z,1008.22
2018-07-22T09:18:52.689Z,1008.16
2018-07-22T09:19:52.727Z,1008.18
2018-07-22T09:20:52.764Z,1008.16
2018-07-22T09:21:52.792Z,1008.13
2018-07-22T09:22:52.831Z,1008.19
2018-07-22T09:23:52.919Z,1008.17
2018-07-22T09:24:52.908Z,1008.21
2018-07-22T09:25:52.946Z,1008.23
2018-07-22T09:26:52.998Z,1008.18
2018-07-22T09:27:53.022Z,1008.22
2018-07-22T09:28:53.060Z,1008.22
2018-07-22T09:29:53.098Z,1008.17
2018-07-22T09:30:53.127Z,1008.17
2018-07-22T09:31:53.165Z,1008.22
2018-07-22T09:32:53.205Z,1008.18
2018-07-22T09:33:53.242Z,1008.18
2018-07-22T09:34:53.278Z,1008.21
2018-07-22T09:35:53.344Z,1008.20
2018-07-22T09:36:53.355Z,1008.24
2018-07-22T09:37:53.394Z,1008.22
2018-07-22T09:38:53.434Z,1008.26
2018-07-22T09:39:53.473Z,1008.24
2018-07-22T09:40:53.510Z,1008.27
2018-07-22T09:41:53.561Z,1008.22
2018-07-22T09:42:53.574Z,1008.23
2018-07-22T09:43:53.611Z,1008.23
2018-07-22T09:44:53.652Z,1008.23
2018-07-22T09:45:53.690Z,1008.25
2018-07-22T09:46:53.728Z,1008.24
2018-07-22T09:47:53.769Z,1008.27
2018-07-22T09:48:53.804Z,1008.29
2018-07-22T09:49:53.857Z,1008.26
2018-07-22T09:50:54.222Z,1008.28
2018-07-22T09:51:53.909Z,1008.27
2018-07-22T09:52:53.947Z,1008.27
2018-07-22T09:53:53.986Z,1008.30
2018-07-22T09:54:54.022Z,1008.31
2018-07-22T09:55:54.060Z,1008.31
2018-07-22T09:56:54.099Z,1008.33
2018-07-22T09:57:54.127Z,1008.37
2018-07-22T09:58:54.166Z,1008.33
2018-07-22T09:59:54.204Z,1008.34
2018-07-22T10:00:54.242Z,1008.34
2018-07-22T10:01:54.280Z,1008.31
2018-07-22T10:02:54.322Z,1008.29
2018-07-22T10:03:54.346Z,1008.29
2018-07-22T10:04:54.440Z,1008.27
2018-07-22T10:05:54.423Z,1008.23
2018-07-22T10:06:54.470Z,1008.30
2018-07-22T10:07:54.497Z,1008.31
2018-07-22T10:08:54.535Z,1008.34
2018-07-22T10:09:54.574Z,1008.38
2018-07-22T10:10:54.614Z,1008.37
2018-07-22T10:11:54.654Z,1008.42
2018-07-22T10:12:54.690Z,1008.41
2018-07-22T10:13:54.730Z,1008.37
2018-07-22T10:14:54.765Z,1008.37
2018-07-22T10:15:54.804Z,1008.35
2018-07-22T10:16:54.842Z,1008.33
2018-07-22T10:17:54.881Z,1008.33
2018-07-22T10:18:54.909Z,1008.32
2018-07-22T10:19:54.945Z,1008.33
2018-07-22T10:20:54.984Z,1008.36
2018-07-22T10:21:55.022Z,1008.32
2018-07-22T10:22:55.064Z,1008.34
2018-07-22T10:23:55.101Z,1008.29
2018-07-22T10:24:55.140Z,1008.27
2018-07-22T10:26:55.217Z,1008.23
2018-07-22T10:27:55.253Z,1008.23
2018-07-22T10:28:55.291Z,1008.22
2018-07-22T10:29:55.329Z,1008.21
2018-07-22T10:30:55.369Z,1008.23
2018-07-22T10:31:55.408Z,1008.26
2018-07-22T10:32:55.435Z,1008.25
2018-07-22T10:33:55.522Z,1008.24
2018-07-22T10:34:55.511Z,1008.25
2018-07-22T10:35:55.629Z,1008.23
2018-07-22T10:36:55.601Z,1008.23
2018-07-22T10:37:55.627Z,1008.20
2018-07-22T10:38:55.665Z,1008.22
2018-07-22T10:39:55.690Z,1008.23
2018-07-22T10:40:55.729Z,1008.21
2018-07-22T10:41:55.766Z,1008.18
2018-07-22T10:42:55.805Z,1008.23
2018-07-22T10:43:55.845Z,1008.19
2018-07-22T10:44:55.883Z,1008.16
2018-07-22T10:45:55.921Z,1008.16
2018-07-22T10:46:55.948Z,1008.18
2018-07-22T10:47:55.985Z,1008.19
2018-07-22T10:48:56.023Z,1008.15
2018-07-22T10:49:56.062Z,1008.19
2018-07-22T10:50:56.123Z,1008.22
2018-07-22T10:51:56.168Z,1008.20
2018-07-22T10:52:56.165Z,1008.21
2018-07-22T10:53:56.203Z,1008.16
2018-07-22T10:54:56.244Z,1008.19
2018-07-22T10:55:56.281Z,1008.18
2018-07-22T10:56:56.325Z,1008.23
2018-07-22T10:57:56.358Z,1008.25
2018-07-22T10:58:56.386Z,1008.24
2018-07-22T10:59:56.422Z,1008.21
2018-07-22T11:00:56.460Z,1008.25
2018-07-22T11:01:56.498Z,1008.23
2018-07-22T11:02:56.537Z,1008.25
2018-07-22T11:03:56.564Z,1008.26
2018-07-22T11:04:56.603Z,1008.23
2018-07-22T11:05:56.641Z,1008.27
2018-07-22T11:06:56.679Z,1008.30
2018-07-22T11:07:56.706Z,1008.29
2018-07-22T11:08:56.744Z,1008.33
2018-07-22T11:09:56.783Z,1008.34
2018-07-22T11:10:56.820Z,1008.34
2018-07-22T11:11:56.844Z,1008.28
2018-07-22T11:12:56.883Z,1008.33
2018-07-22T11:13:56.923Z,1008.35
2018-07-22T11:14:57.038Z,1008.30
2018-07-22T11:15:56.988Z,1008.33
2018-07-22T11:16:57.028Z,1008.25
2018-07-22T11:17:57.066Z,1008.24
2018-07-22T11:18:57.091Z,1008.27
2018-07-22T11:19:57.126Z,1008.33
2018-07-22T11:20:57.229Z,1008.29
2018-07-22T11:21:57.204Z,1008.32
2018-07-22T11:22:57.230Z,1008.32
2018-07-22T11:23:57.269Z,1008.29
2018-07-22T11:24:57.306Z,1008.27
2018-07-22T11:25:57.347Z,1008.27
2018-07-22T11:26:57.374Z,1008.26
2018-07-22T11:27:57.412Z,1008.21
2018-07-22T11:28:57.515Z,1008.23
2018-07-22T11:29:57.488Z,1008.24
2018-07-22T11:30:57.515Z,1008.26
2018-07-22T11:31:57.551Z,1008.20
2018-07-22T11:32:57.589Z,1008.24
2018-07-22T11:33:57.631Z,1008.25
2018-07-22T11:34:57.683Z,1008.33
2018-07-22T11:35:58.056Z,1008.34
2018-07-22T11:36:57.733Z,1008.32
2018-07-22T11:37:57.770Z,1008.30
2018-07-22T11:38:57.797Z,1008.33
2018-07-22T11:39:57.848Z,1008.31
2018-07-22T11:40:57.873Z,1008.33
2018-07-22T11:41:57.910Z,1008.30
2018-07-22T11:42:57.936Z,1008.33
2018-07-22T11:43:58.018Z,1008.34
2018-07-22T11:44:58.018Z,1008.32
2018-07-22T11:45:58.043Z,1008.34
2018-07-22T11:46:58.092Z,1008.32
2018-07-22T11:47:58.115Z,1008.33
2018-07-22T11:48:58.153Z,1008.33
2018-07-22T11:49:58.181Z,1008.31
2018-07-22T11:50:58.218Z,1008.31
2018-07-22T11:51:58.259Z,1008.28
2018-07-22T11:52:58.284Z,1008.24
2018-07-22T11:53:58.324Z,1008.25
2018-07-22T11:54:58.364Z,1008.26
2018-07-22T11:55:58.391Z,1008.21
2018-07-22T11:56:58.428Z,1008.22
2018-07-22T11:57:58.464Z,1008.19
2018-07-22T11:58:58.504Z,1008.17
2018-07-22T11:59:58.532Z,1008.20
2018-07-22T12:00:58.565Z,1008.18
2018-07-22T12:01:58.593Z,1008.19
2018-07-22T12:02:58.632Z,1008.20
2018-07-22T12:03:58.672Z,1008.23
2018-07-22T12:04:58.699Z,1008.25
2018-07-22T12:05:58.753Z,1008.19
2018-07-22T12:06:58.773Z,1008.21
2018-07-22T12:07:58.796Z,1008.19